Pagrindinis puslapis
METAR-TAF:

METAR-TAF

Oro uostai :

Paganella, Italija

platuma: 46-09N, ilguma: 011-02E, Aukštis: 2125 m

Dabartinis oras

Ataskaita buvo paskelbta 1 valandą ir 16 minutes, ne 02:55 UTC
Vėjas 9 kt iš Šiaurės
Temperatūra -6°C
Drėgmė 100%
Slėgis 1017 hPa
Matomumas: 0500 m
įšaldymas rūko

METAR: LIVP 180255Z 36009KT 0500 FZFG VV/// M06/M06 Q1017 RMK MON INVIS VAL INVIS VIS MIN 0500

Laikas: 05:11 (04:11 UTC)


TAF: trūkstamas

Orai ataskaitas ir orų prognozės (METAR, TAF).

turimą stotys yra geltonos ir raudonos taškus žemėlapyje.

Perkelti pele per norėdami pamatyti stoties vardą.

Tada spustelėkite, norėdami matyti oro stebėjimo ir prognozės.

Norėdami pakeisti žemėlapį: spustelėkite ant žalios mygtukų su juodo kryžiaus žemyn,; žalią mygtuką su brūkšneliu, jei norite nutolinti; arba žalių rodyklių gretimoms žemėlapius.


METAR-TAF: